sensor_id;sensor_type;location;lat;lon;timestamp;temperature;humidity
55219;DHT22;41088;44.012;20.902;2022-09-23T00:43:17;256.20;2252.80
55219;DHT22;41088;44.012;20.902;2022-09-23T00:45:46;231.20;2252.80
55219;DHT22;41088;44.012;20.902;2022-09-23T00:48:16;231.10;2252.80
55219;DHT22;41088;44.012;20.902;2022-09-23T00:50:48;231.10;2252.80
55219;DHT22;41088;44.012;20.902;2022-09-23T00:53:17;231.30;2252.80
55219;DHT22;41088;44.012;20.902;2022-09-23T00:55:51;231.00;2252.80
55219;DHT22;41088;44.012;20.902;2022-09-23T00:58:22;231.00;2252.80
55219;DHT22;41088;44.012;20.902;2022-09-23T01:00:52;230.90;2252.80
55219;DHT22;41088;44.012;20.902;2022-09-23T01:03:18;230.90;2252.80
55219;DHT22;41088;44.012;20.902;2022-09-23T01:05:44;230.90;2252.80
55219;DHT22;41088;44.012;20.902;2022-09-23T01:08:12;231.00;2252.80
55219;DHT22;41088;44.012;20.902;2022-09-23T01:10:48;231.00;2252.80
55219;DHT22;41088;44.012;20.902;2022-09-23T01:13:23;231.00;2252.80
55219;DHT22;41088;44.012;20.902;2022-09-23T01:16:00;231.00;2252.80
55219;DHT22;41088;44.012;20.902;2022-09-23T01:21:42;231.10;2252.80
55219;DHT22;41088;44.012;20.902;2022-09-23T01:32:43;231.00;2252.80
55219;DHT22;41088;44.012;20.902;2022-09-23T01:38:34;231.00;2252.80
55219;DHT22;41088;44.012;20.902;2022-09-23T01:44:04;230.90;2252.80
55219;DHT22;41088;44.012;20.902;2022-09-23T01:46:40;230.90;2252.80
55219;DHT22;41088;44.012;20.902;2022-09-23T01:49:17;230.90;2252.80
55219;DHT22;41088;44.012;20.902;2022-09-23T01:51:52;230.80;2252.80
55219;DHT22;41088;44.012;20.902;2022-09-23T01:54:27;230.80;2252.80
55219;DHT22;41088;44.012;20.902;2022-09-23T01:57:01;230.80;2252.80
55219;DHT22;41088;44.012;20.902;2022-09-23T01:59:49;230.70;2252.80
55219;DHT22;41088;44.012;20.902;2022-09-23T02:02:25;230.70;2252.80
55219;DHT22;41088;44.012;20.902;2022-09-23T02:05:41;230.70;2252.80
55219;DHT22;41088;44.012;20.902;2022-09-23T02:07:52;230.70;2252.80
55219;DHT22;41088;44.012;20.902;2022-09-23T02:10:32;230.70;2252.80
55219;DHT22;41088;44.012;20.902;2022-09-23T02:13:06;230.70;2252.80
55219;DHT22;41088;44.012;20.902;2022-09-23T02:15:49;230.80;2252.80
55219;DHT22;41088;44.012;20.902;2022-09-23T02:18:30;230.80;2252.80
55219;DHT22;41088;44.012;20.902;2022-09-23T02:21:03;230.80;2252.80
55219;DHT22;41088;44.012;20.902;2022-09-23T02:23:37;230.80;2252.80
55219;DHT22;41088;44.012;20.902;2022-09-23T02:26:17;230.70;2252.80
55219;DHT22;41088;44.012;20.902;2022-09-23T02:29:13;230.90;2252.80
55219;DHT22;41088;44.012;20.902;2022-09-23T02:45:30;230.90;2252.80
55219;DHT22;41088;44.012;20.902;2022-09-23T02:48:12;230.90;2252.80
55219;DHT22;41088;44.012;20.902;2022-09-23T02:50:39;230.90;2252.80
55219;DHT22;41088;44.012;20.902;2022-09-23T02:53:06;230.90;2252.80
55219;DHT22;41088;44.012;20.902;2022-09-23T02:55:33;230.90;2252.80
55219;DHT22;41088;44.012;20.902;2022-09-23T02:58:00;230.80;2252.80
55219;DHT22;41088;44.012;20.902;2022-09-23T03:03:28;230.80;2252.80
55219;DHT22;41088;44.012;20.902;2022-09-23T03:05:57;230.80;2252.80
55219;DHT22;41088;44.012;20.902;2022-09-23T03:08:50;230.70;2252.80
55219;DHT22;41088;44.012;20.902;2022-09-23T03:11:18;230.70;2252.80
55219;DHT22;41088;44.012;20.902;2022-09-23T03:14:00;230.70;2252.80
55219;DHT22;41088;44.012;20.902;2022-09-23T03:16:55;230.60;2252.80
55219;DHT22;41088;44.012;20.902;2022-09-23T03:24:44;230.80;2252.80
55219;DHT22;41088;44.012;20.902;2022-09-23T03:27:16;230.60;2252.80
55219;DHT22;41088;44.012;20.902;2022-09-23T03:29:47;230.60;2252.80
55219;DHT22;41088;44.012;20.902;2022-09-23T03:32:16;230.50;2252.80
55219;DHT22;41088;44.012;20.902;2022-09-23T03:34:45;230.50;2252.80
55219;DHT22;41088;44.012;20.902;2022-09-23T03:37:50;230.70;2252.80
55219;DHT22;41088;44.012;20.902;2022-09-23T03:40:27;230.70;2252.80
55219;DHT22;41088;44.012;20.902;2022-09-23T03:42:55;230.80;2252.80
55219;DHT22;41088;44.012;20.902;2022-09-23T03:45:26;230.80;2252.80
55219;DHT22;41088;44.012;20.902;2022-09-23T03:47:54;230.80;2252.80
55219;DHT22;41088;44.012;20.902;2022-09-23T03:50:20;230.80;2252.80
55219;DHT22;41088;44.012;20.902;2022-09-23T03:52:46;230.90;2252.80
55219;DHT22;41088;44.012;20.902;2022-09-23T03:55:14;230.90;2252.80
55219;DHT22;41088;44.012;20.902;2022-09-23T03:57:41;230.90;2252.80
55219;DHT22;41088;44.012;20.902;2022-09-23T04:00:09;231.00;2252.80
55219;DHT22;41088;44.012;20.902;2022-09-23T04:02:35;231.00;2252.80
55219;DHT22;41088;44.012;20.902;2022-09-23T04:05:02;231.00;2252.80
55219;DHT22;41088;44.012;20.902;2022-09-23T04:07:28;231.00;2252.80
55219;DHT22;41088;44.012;20.902;2022-09-23T04:09:53;231.00;2252.80
55219;DHT22;41088;44.012;20.902;2022-09-23T04:12:22;231.00;2252.80
55219;DHT22;41088;44.012;20.902;2022-09-23T04:14:48;231.00;2252.80
55219;DHT22;41088;44.012;20.902;2022-09-23T04:17:14;231.00;2252.80
55219;DHT22;41088;44.012;20.902;2022-09-23T04:19:41;231.10;2252.80
55219;DHT22;41088;44.012;20.902;2022-09-23T04:22:07;231.10;2252.80
55219;DHT22;41088;44.012;20.902;2022-09-23T04:24:34;231.00;2252.80
55219;DHT22;41088;44.012;20.902;2022-09-23T04:27:00;231.00;2252.80
55219;DHT22;41088;44.012;20.902;2022-09-23T04:29:26;231.00;2252.80
55219;DHT22;41088;44.012;20.902;2022-09-23T04:31:52;231.00;2252.80
55219;DHT22;41088;44.012;20.902;2022-09-23T04:34:19;231.00;2252.80
55219;DHT22;41088;44.012;20.902;2022-09-23T04:36:46;231.00;2252.80
55219;DHT22;41088;44.012;20.902;2022-09-23T04:39:14;231.10;2252.80
55219;DHT22;41088;44.012;20.902;2022-09-23T04:41:41;231.10;2252.80
55219;DHT22;41088;44.012;20.902;2022-09-23T04:44:07;231.10;2252.80
55219;DHT22;41088;44.012;20.902;2022-09-23T04:46:33;231.10;2252.80
55219;DHT22;41088;44.012;20.902;2022-09-23T04:48:59;231.10;2252.80
55219;DHT22;41088;44.012;20.902;2022-09-23T04:51:26;231.20;2252.80
55219;DHT22;41088;44.012;20.902;2022-09-23T04:53:53;231.20;2252.80
55219;DHT22;41088;44.012;20.902;2022-09-23T04:56:24;231.20;2252.80
55219;DHT22;41088;44.012;20.902;2022-09-23T04:58:51;231.10;2252.80
55219;DHT22;41088;44.012;20.902;2022-09-23T05:01:19;231.30;2252.80
55219;DHT22;41088;44.012;20.902;2022-09-23T05:03:50;231.30;2252.80
55219;DHT22;41088;44.012;20.902;2022-09-23T05:06:17;256.10;2252.80
55219;DHT22;41088;44.012;20.902;2022-09-23T05:08:48;256.00;2252.80
55219;DHT22;41088;44.012;20.902;2022-09-23T05:11:15;256.10;2252.80
55219;DHT22;41088;44.012;20.902;2022-09-23T05:13:42;256.50;2252.80
55219;DHT22;41088;44.012;20.902;2022-09-23T05:16:10;256.30;2252.80
55219;DHT22;41088;44.012;20.902;2022-09-23T05:18:38;256.30;2252.80
55219;DHT22;41088;44.012;20.902;2022-09-23T05:21:06;256.70;2252.80
55219;DHT22;41088;44.012;20.902;2022-09-23T05:23:32;256.40;2252.80
55219;DHT22;41088;44.012;20.902;2022-09-23T05:26:01;256.70;2252.80
55219;DHT22;41088;44.012;20.902;2022-09-23T05:28:29;281.90;2278.40
55219;DHT22;41088;44.012;20.902;2022-09-23T05:31:24;281.90;2278.40
55219;DHT22;41088;44.012;20.902;2022-09-23T05:36:19;282.30;2278.40
55219;DHT22;41088;44.012;20.902;2022-09-23T05:38:47;282.20;2278.40
55219;DHT22;41088;44.012;20.902;2022-09-23T05:41:17;282.10;2278.40
55219;DHT22;41088;44.012;20.902;2022-09-23T05:43:44;282.30;2278.40
55219;DHT22;41088;44.012;20.902;2022-09-23T05:46:15;282.40;2278.40
55219;DHT22;41088;44.012;20.902;2022-09-23T05:48:42;282.30;2278.40
55219;DHT22;41088;44.012;20.902;2022-09-23T05:51:14;282.30;2278.40
55219;DHT22;41088;44.012;20.902;2022-09-23T05:53:40;282.40;2278.40
55219;DHT22;41088;44.012;20.902;2022-09-23T05:56:14;307.20;2304.00
55219;DHT22;41088;44.012;20.902;2022-09-23T05:58:41;307.70;2304.00
55219;DHT22;41088;44.012;20.902;2022-09-23T08:52:05;435.40;2355.20
55219;DHT22;41088;44.012;20.902;2022-09-23T08:54:34;435.20;2355.20
55219;DHT22;41088;44.012;20.902;2022-09-23T09:15:06;461.00;2380.80
55219;DHT22;41088;44.012;20.902;2022-09-23T09:17:37;460.80;2380.80
55219;DHT22;41088;44.012;20.902;2022-09-23T09:22:57;436.10;2355.20
55219;DHT22;41088;44.012;20.902;2022-09-23T09:26:10;435.90;2355.20
55219;DHT22;41088;44.012;20.902;2022-09-23T09:28:39;435.90;2355.20
55219;DHT22;41088;44.012;20.902;2022-09-23T09:51:28;461.30;2380.80
55219;DHT22;41088;44.012;20.902;2022-09-23T09:53:54;461.30;2380.80
55219;DHT22;41088;44.012;20.902;2022-09-23T09:56:41;461.00;2380.80
55219;DHT22;41088;44.012;20.902;2022-09-23T10:07:14;461.00;2380.80
55219;DHT22;41088;44.012;20.902;2022-09-23T10:22:24;460.80;2380.80
55219;DHT22;41088;44.012;20.902;2022-09-23T10:24:57;435.90;2355.20
55219;DHT22;41088;44.012;20.902;2022-09-23T10:27:30;435.90;2355.20
55219;DHT22;41088;44.012;20.902;2022-09-23T10:29:59;436.10;2355.20
55219;DHT22;41088;44.012;20.902;2022-09-23T10:32:36;460.80;2380.80
55219;DHT22;41088;44.012;20.902;2022-09-23T11:19:57;435.70;2355.20
55219;DHT22;41088;44.012;20.902;2022-09-23T12:51:23;461.30;2304.00
55219;DHT22;41088;44.012;20.902;2022-09-23T12:54:19;461.00;2329.60
55219;DHT22;41088;44.012;20.902;2022-09-23T13:27:50;487.00;2073.60
55219;DHT22;41088;44.012;20.902;2022-09-23T13:30:20;486.70;2073.60
55219;DHT22;41088;44.012;20.902;2022-09-23T13:33:05;486.80;2073.60
55219;DHT22;41088;44.012;20.902;2022-09-23T13:35:40;486.70;2073.60
55219;DHT22;41088;44.012;20.902;2022-09-23T13:38:24;486.70;2099.20
55219;DHT22;41088;44.012;20.902;2022-09-23T13:41:02;486.80;2073.60
55219;DHT22;41088;44.012;20.902;2022-09-23T13:43:33;486.80;2073.60
55219;DHT22;41088;44.012;20.902;2022-09-23T13:46:01;486.90;2073.60
55219;DHT22;41088;44.012;20.902;2022-09-23T13:48:31;487.20;2073.60
55219;DHT22;41088;44.012;20.902;2022-09-23T13:50:57;486.90;2073.60
55219;DHT22;41088;44.012;20.902;2022-09-23T13:53:30;486.90;2073.60
55219;DHT22;41088;44.012;20.902;2022-09-23T13:56:11;486.90;2073.60
55219;DHT22;41088;44.012;20.902;2022-09-23T13:58:37;486.90;2048.00
55219;DHT22;41088;44.012;20.902;2022-09-23T14:01:07;486.90;2048.00
55219;DHT22;41088;44.012;20.902;2022-09-23T14:03:39;487.00;2048.00
55219;DHT22;41088;44.012;20.902;2022-09-23T14:06:09;512.00;2048.00
55219;DHT22;41088;44.012;20.902;2022-09-23T14:08:38;487.20;2022.40
55219;DHT22;41088;44.012;20.902;2022-09-23T14:11:06;487.30;2022.40
55219;DHT22;41088;44.012;20.902;2022-09-23T14:13:39;487.30;1996.80
55219;DHT22;41088;44.012;20.902;2022-09-23T14:16:10;487.30;1996.80
55219;DHT22;41088;44.012;20.902;2022-09-23T14:21:08;487.30;1971.20
55219;DHT22;41088;44.012;20.902;2022-09-23T14:23:51;487.20;1996.80
55219;DHT22;41088;44.012;20.902;2022-09-23T14:26:17;487.00;2022.40
55219;DHT22;41088;44.012;20.902;2022-09-23T14:28:45;486.80;2048.00
55219;DHT22;41088;44.012;20.902;2022-09-23T14:31:11;486.70;2073.60
55219;DHT22;41088;44.012;20.902;2022-09-23T14:33:40;486.60;2048.00
55219;DHT22;41088;44.012;20.902;2022-09-23T14:36:17;486.50;2048.00
55219;DHT22;41088;44.012;20.902;2022-09-23T14:39:07;486.40;2048.00
55219;DHT22;41088;44.012;20.902;2022-09-23T14:41:41;461.70;2048.00
55219;DHT22;41088;44.012;20.902;2022-09-23T14:44:22;461.70;2048.00
55219;DHT22;41088;44.012;20.902;2022-09-23T14:46:57;461.60;2048.00
55219;DHT22;41088;44.012;20.902;2022-09-23T14:49:24;461.60;1996.80
55219;DHT22;41088;44.012;20.902;2022-09-23T14:51:59;461.40;1996.80
55219;DHT22;41088;44.012;20.902;2022-09-23T14:54:43;461.30;2022.40
55219;DHT22;41088;44.012;20.902;2022-09-23T15:00:32;461.40;1996.80
55219;DHT22;41088;44.012;20.902;2022-09-23T15:03:00;461.40;1996.80
55219;DHT22;41088;44.012;20.902;2022-09-23T15:05:38;461.10;2022.40
55219;DHT22;41088;44.012;20.902;2022-09-23T15:15:31;461.00;1996.80
55219;DHT22;41088;44.012;20.902;2022-09-23T15:18:06;460.80;1996.80
55219;DHT22;41088;44.012;20.902;2022-09-23T15:37:54;435.60;2022.40
55219;DHT22;41088;44.012;20.902;2022-09-23T15:40:29;435.50;2048.00
55219;DHT22;41088;44.012;20.902;2022-09-23T15:42:58;435.40;2022.40
55219;DHT22;41088;44.012;20.902;2022-09-23T15:45:35;435.40;2022.40
55219;DHT22;41088;44.012;20.902;2022-09-23T15:48:12;435.30;2048.00
55219;DHT22;41088;44.012;20.902;2022-09-23T15:50:39;435.20;2073.60
55219;DHT22;41088;44.012;20.902;2022-09-23T15:53:06;410.50;2124.80
55219;DHT22;41088;44.012;20.902;2022-09-23T15:55:33;410.40;2176.00
55219;DHT22;41088;44.012;20.902;2022-09-23T15:57:58;410.30;2201.60
55219;DHT22;41088;44.012;20.902;2022-09-23T16:00:26;410.20;2227.20
55219;DHT22;41088;44.012;20.902;2022-09-23T16:02:53;410.20;2252.80
55219;DHT22;41088;44.012;20.902;2022-09-23T16:05:31;410.10;2278.40
55219;DHT22;41088;44.012;20.902;2022-09-23T16:17:50;409.90;2355.20
55219;DHT22;41088;44.012;20.902;2022-09-23T16:22:59;409.80;2355.20
55219;DHT22;41088;44.012;20.902;2022-09-23T16:25:27;384.90;2329.60
55219;DHT22;41088;44.012;20.902;2022-09-23T16:27:54;384.80;2329.60
55219;DHT22;41088;44.012;20.902;2022-09-23T16:30:22;384.60;2329.60
55219;DHT22;41088;44.012;20.902;2022-09-23T16:32:48;384.50;2329.60
55219;DHT22;41088;44.012;20.902;2022-09-23T16:35:19;384.40;2329.60
55219;DHT22;41088;44.012;20.902;2022-09-23T16:37:49;384.30;2329.60
55219;DHT22;41088;44.012;20.902;2022-09-23T16:40:19;384.30;2329.60
55219;DHT22;41088;44.012;20.902;2022-09-23T16:42:50;384.20;2329.60
55219;DHT22;41088;44.012;20.902;2022-09-23T16:45:20;384.10;2329.60
55219;DHT22;41088;44.012;20.902;2022-09-23T16:47:48;384.10;2329.60
55219;DHT22;41088;44.012;20.902;2022-09-23T16:50:20;384.00;2329.60
55219;DHT22;41088;44.012;20.902;2022-09-23T16:52:52;384.00;2329.60
55219;DHT22;41088;44.012;20.902;2022-09-23T16:55:22;359.30;2329.60
55219;DHT22;41088;44.012;20.902;2022-09-23T16:57:50;359.20;2329.60
55219;DHT22;41088;44.012;20.902;2022-09-23T17:00:17;359.10;2329.60
55219;DHT22;41088;44.012;20.902;2022-09-23T17:03:02;359.10;2329.60
55219;DHT22;41088;44.012;20.902;2022-09-23T17:05:47;359.00;2329.60
55219;DHT22;41088;44.012;20.902;2022-09-23T17:08:15;358.80;2329.60
55219;DHT22;41088;44.012;20.902;2022-09-23T17:10:42;358.70;2329.60
55219;DHT22;41088;44.012;20.902;2022-09-23T17:13:09;358.60;2329.60
55219;DHT22;41088;44.012;20.902;2022-09-23T17:15:39;358.60;2329.60
55219;DHT22;41088;44.012;20.902;2022-09-23T17:18:06;358.50;2329.60
55219;DHT22;41088;44.012;20.902;2022-09-23T17:20:33;358.40;2329.60
55219;DHT22;41088;44.012;20.902;2022-09-23T18:11:49;308.10;2304.00
55219;DHT22;41088;44.012;20.902;2022-09-23T18:14:17;307.90;2304.00
55219;DHT22;41088;44.012;20.902;2022-09-23T18:26:33;307.60;2304.00
55219;DHT22;41088;44.012;20.902;2022-09-23T18:28:59;307.60;2304.00
55219;DHT22;41088;44.012;20.902;2022-09-23T18:31:32;307.50;2304.00
55219;DHT22;41088;44.012;20.902;2022-09-23T18:34:08;307.40;2304.00
55219;DHT22;41088;44.012;20.902;2022-09-23T18:36:36;307.20;2304.00
55219;DHT22;41088;44.012;20.902;2022-09-23T18:39:03;307.30;2304.00
55219;DHT22;41088;44.012;20.902;2022-09-23T18:41:29;307.20;2304.00
55219;DHT22;41088;44.012;20.902;2022-09-23T18:43:55;282.50;2278.40
55219;DHT22;41088;44.012;20.902;2022-09-23T21:38:57;256.20;2252.80
55219;DHT22;41088;44.012;20.902;2022-09-23T21:41:26;231.30;2252.80
55219;DHT22;41088;44.012;20.902;2022-09-23T21:43:52;231.20;2252.80
55219;DHT22;41088;44.012;20.902;2022-09-23T21:46:21;231.20;2252.80
55219;DHT22;41088;44.012;20.902;2022-09-23T21:48:49;231.10;2252.80
55219;DHT22;41088;44.012;20.902;2022-09-23T21:51:22;231.00;2252.80
55219;DHT22;41088;44.012;20.902;2022-09-23T21:53:52;231.00;2252.80
55219;DHT22;41088;44.012;20.902;2022-09-23T21:56:30;230.90;2252.80
55219;DHT22;41088;44.012;20.902;2022-09-23T21:58:59;231.00;2252.80
55219;DHT22;41088;44.012;20.902;2022-09-23T22:01:30;231.00;2252.80
55219;DHT22;41088;44.012;20.902;2022-09-23T22:04:02;231.00;2252.80
55219;DHT22;41088;44.012;20.902;2022-09-23T22:06:34;231.00;2252.80
55219;DHT22;41088;44.012;20.902;2022-09-23T22:09:04;231.00;2252.80
55219;DHT22;41088;44.012;20.902;2022-09-23T22:11:34;230.90;2252.80
55219;DHT22;41088;44.012;20.902;2022-09-23T22:14:20;230.90;2252.80
55219;DHT22;41088;44.012;20.902;2022-09-23T22:16:49;231.00;2252.80
55219;DHT22;41088;44.012;20.902;2022-09-23T22:19:15;230.80;2252.80
55219;DHT22;41088;44.012;20.902;2022-09-23T22:21:42;230.80;2252.80
55219;DHT22;41088;44.012;20.902;2022-09-23T22:24:10;230.80;2252.80
55219;DHT22;41088;44.012;20.902;2022-09-23T22:26:41;230.80;2252.80
55219;DHT22;41088;44.012;20.902;2022-09-23T22:29:09;230.80;2252.80
55219;DHT22;41088;44.012;20.902;2022-09-23T22:31:54;230.80;2252.80
55219;DHT22;41088;44.012;20.902;2022-09-23T22:34:39;230.70;2252.80
55219;DHT22;41088;44.012;20.902;2022-09-23T22:37:10;230.80;2252.80
55219;DHT22;41088;44.012;20.902;2022-09-23T22:39:36;230.80;2252.80
55219;DHT22;41088;44.012;20.902;2022-09-23T22:42:02;230.70;2252.80
55219;DHT22;41088;44.012;20.902;2022-09-23T22:44:30;230.70;2252.80
55219;DHT22;41088;44.012;20.902;2022-09-23T22:46:57;230.60;2252.80
55219;DHT22;41088;44.012;20.902;2022-09-23T22:49:23;230.70;2252.80
55219;DHT22;41088;44.012;20.902;2022-09-23T22:55:11;230.60;2252.80
55219;DHT22;41088;44.012;20.902;2022-09-23T22:57:37;230.60;2252.80
55219;DHT22;41088;44.012;20.902;2022-09-23T23:00:06;230.60;2252.80
55219;DHT22;41088;44.012;20.902;2022-09-23T23:07:43;230.90;2252.80
55219;DHT22;41088;44.012;20.902;2022-09-23T23:10:13;230.80;2252.80
55219;DHT22;41088;44.012;20.902;2022-09-23T23:12:50;230.50;2252.80
55219;DHT22;41088;44.012;20.902;2022-09-23T23:15:17;230.70;2252.80
55219;DHT22;41088;44.012;20.902;2022-09-23T23:18:24;230.50;2252.80
55219;DHT22;41088;44.012;20.902;2022-09-23T23:21:21;230.40;2252.80
55219;DHT22;41088;44.012;20.902;2022-09-23T23:24:02;230.40;2252.80
55219;DHT22;41088;44.012;20.902;2022-09-23T23:26:46;205.70;2252.80
55219;DHT22;41088;44.012;20.902;2022-09-23T23:29:27;205.70;2252.80
55219;DHT22;41088;44.012;20.902;2022-09-23T23:32:10;205.70;2252.80
55219;DHT22;41088;44.012;20.902;2022-09-23T23:34:37;230.40;2252.80
55219;DHT22;41088;44.012;20.902;2022-09-23T23:37:07;205.70;2252.80
55219;DHT22;41088;44.012;20.902;2022-09-23T23:39:35;230.40;2252.80
55219;DHT22;41088;44.012;20.902;2022-09-23T23:42:08;230.60;2252.80
55219;DHT22;41088;44.012;20.902;2022-09-23T23:44:37;230.40;2252.80
55219;DHT22;41088;44.012;20.902;2022-09-23T23:47:32;205.70;2252.80
55219;DHT22;41088;44.012;20.902;2022-09-23T23:50:09;230.40;2252.80
55219;DHT22;41088;44.012;20.902;2022-09-23T23:52:47;230.50;2252.80
55219;DHT22;41088;44.012;20.902;2022-09-23T23:55:13;230.40;2252.80
55219;DHT22;41088;44.012;20.902;2022-09-23T23:57:53;205.70;2252.80
